sensor_id;sensor_type;location;lat;lon;timestamp;pressure;altitude;pressure_sealevel;temperature;humidity
55010;BME280;40903;51.638;7.528;2023-04-06T00:00:32;101288.41;;;1.16;92.02
55010;BME280;40903;51.638;7.528;2023-04-06T00:02:57;101292.94;;;1.16;92.21
55010;BME280;40903;51.638;7.528;2023-04-06T00:05:22;101284.47;;;1.12;92.40
55010;BME280;40903;51.638;7.528;2023-04-06T00:07:48;101282.22;;;1.09;92.70
55010;BME280;40903;51.638;7.528;2023-04-06T00:10:13;101286.19;;;1.07;92.84
55010;BME280;40903;51.638;7.528;2023-04-06T00:12:38;101284.75;;;1.04;93.02
55010;BME280;40903;51.638;7.528;2023-04-06T00:15:04;101283.53;;;1.00;93.11
55010;BME280;40903;51.638;7.528;2023-04-06T00:17:30;101281.06;;;0.99;93.25
55010;BME280;40903;51.638;7.528;2023-04-06T00:19:55;101282.94;;;0.98;93.32
55010;BME280;40903;51.638;7.528;2023-04-06T00:22:21;101279.63;;;0.96;93.31
55010;BME280;40903;51.638;7.528;2023-04-06T00:24:46;101278.19;;;0.94;93.10
55010;BME280;40903;51.638;7.528;2023-04-06T00:27:11;101274.06;;;0.91;92.90
55010;BME280;40903;51.638;7.528;2023-04-06T00:29:36;101270.78;;;0.89;92.99
55010;BME280;40903;51.638;7.528;2023-04-06T00:32:02;101273.91;;;0.86;92.67
55010;BME280;40903;51.638;7.528;2023-04-06T00:34:27;101268.75;;;0.85;92.70
55010;BME280;40903;51.638;7.528;2023-04-06T00:36:52;101267.94;;;0.84;92.58
55010;BME280;40903;51.638;7.528;2023-04-06T00:39:18;101268.31;;;0.81;92.36
55010;BME280;40903;51.638;7.528;2023-04-06T00:41:47;101257.81;;;0.80;92.25
55010;BME280;40903;51.638;7.528;2023-04-06T00:44:14;101269.00;;;0.77;92.15
55010;BME280;40903;51.638;7.528;2023-04-06T00:46:39;101262.19;;;0.74;91.99
55010;BME280;40903;51.638;7.528;2023-04-06T00:49:05;101254.34;;;0.73;91.83
55010;BME280;40903;51.638;7.528;2023-04-06T00:51:30;101252.69;;;0.72;91.90
55010;BME280;40903;51.638;7.528;2023-04-06T00:53:55;101239.28;;;0.72;91.89
55010;BME280;40903;51.638;7.528;2023-04-06T00:56:21;101242.59;;;0.67;91.84
55010;BME280;40903;51.638;7.528;2023-04-06T00:58:48;101236.63;;;0.65;92.15
55010;BME280;40903;51.638;7.528;2023-04-06T01:01:13;101232.28;;;0.64;92.49
55010;BME280;40903;51.638;7.528;2023-04-06T01:03:39;101237.06;;;0.62;92.63
55010;BME280;40903;51.638;7.528;2023-04-06T01:06:04;101232.53;;;0.63;92.83
55010;BME280;40903;51.638;7.528;2023-04-06T01:08:29;101230.03;;;0.61;92.98
55010;BME280;40903;51.638;7.528;2023-04-06T01:10:55;101226.75;;;0.59;93.13
55010;BME280;40903;51.638;7.528;2023-04-06T01:13:20;101223.22;;;0.59;93.60
55010;BME280;40903;51.638;7.528;2023-04-06T01:15:46;101225.09;;;0.58;93.72
55010;BME280;40903;51.638;7.528;2023-04-06T01:18:12;101226.75;;;0.59;93.68
55010;BME280;40903;51.638;7.528;2023-04-06T01:20:37;101221.81;;;0.56;93.84
55010;BME280;40903;51.638;7.528;2023-04-06T01:23:02;101218.28;;;0.56;94.11
55010;BME280;40903;51.638;7.528;2023-04-06T01:25:28;101214.81;;;0.55;94.24
55010;BME280;40903;51.638;7.528;2023-04-06T01:27:53;101213.97;;;0.55;94.38
55010;BME280;40903;51.638;7.528;2023-04-06T01:30:18;101208.84;;;0.53;94.51
55010;BME280;40903;51.638;7.528;2023-04-06T01:32:43;101203.88;;;0.50;94.46
55010;BME280;40903;51.638;7.528;2023-04-06T01:35:10;101206.78;;;0.49;94.83
55010;BME280;40903;51.638;7.528;2023-04-06T01:37:35;101200.59;;;0.48;94.89
55010;BME280;40903;51.638;7.528;2023-04-06T01:40:01;101208.63;;;0.48;95.07
55010;BME280;40903;51.638;7.528;2023-04-06T01:42:26;101198.31;;;0.45;95.19
55010;BME280;40903;51.638;7.528;2023-04-06T01:44:52;101194.19;;;0.43;95.36
55010;BME280;40903;51.638;7.528;2023-04-06T01:47:18;101189.88;;;0.42;95.29
55010;BME280;40903;51.638;7.528;2023-04-06T01:49:43;101182.88;;;0.41;95.42
55010;BME280;40903;51.638;7.528;2023-04-06T01:52:08;101188.47;;;0.39;95.33
55010;BME280;40903;51.638;7.528;2023-04-06T01:54:33;101190.50;;;0.37;95.53
55010;BME280;40903;51.638;7.528;2023-04-06T01:56:59;101183.50;;;0.36;95.49
55010;BME280;40903;51.638;7.528;2023-04-06T01:59:24;101196.31;;;0.34;95.65
55010;BME280;40903;51.638;7.528;2023-04-06T02:01:49;101183.13;;;0.33;95.75
55010;BME280;40903;51.638;7.528;2023-04-06T02:04:15;101189.72;;;0.30;95.81
55010;BME280;40903;51.638;7.528;2023-04-06T02:06:40;101188.09;;;0.29;95.95
55010;BME280;40903;51.638;7.528;2023-04-06T02:09:06;101185.59;;;0.28;95.98
55010;BME280;40903;51.638;7.528;2023-04-06T02:11:31;101186.63;;;0.27;96.02
55010;BME280;40903;51.638;7.528;2023-04-06T02:13:56;101174.50;;;0.24;96.14
55010;BME280;40903;51.638;7.528;2023-04-06T02:16:22;101176.53;;;0.22;96.13
55010;BME280;40903;51.638;7.528;2023-04-06T02:18:47;101182.94;;;0.21;96.45
55010;BME280;40903;51.638;7.528;2023-04-06T02:21:12;101186.06;;;0.18;96.46
55010;BME280;40903;51.638;7.528;2023-04-06T02:23:38;101180.09;;;0.16;96.70
55010;BME280;40903;51.638;7.528;2023-04-06T02:26:03;101182.97;;;0.15;96.80
55010;BME280;40903;51.638;7.528;2023-04-06T02:28:28;101184.00;;;0.14;96.73
55010;BME280;40903;51.638;7.528;2023-04-06T02:30:53;101186.31;;;0.10;96.95
55010;BME280;40903;51.638;7.528;2023-04-06T02:33:19;101181.97;;;0.09;97.07
55010;BME280;40903;51.638;7.528;2023-04-06T02:35:44;101178.47;;;0.09;97.45
55010;BME280;40903;51.638;7.528;2023-04-06T02:38:10;101182.19;;;0.08;97.93
55010;BME280;40903;51.638;7.528;2023-04-06T02:40:35;101185.69;;;0.08;98.38
55010;BME280;40903;51.638;7.528;2023-04-06T02:43:00;101183.00;;;0.08;99.05
55010;BME280;40903;51.638;7.528;2023-04-06T02:45:26;101178.66;;;0.07;100.00
55010;BME280;40903;51.638;7.528;2023-04-06T02:47:51;101187.72;;;0.06;100.00
55010;BME280;40903;51.638;7.528;2023-04-06T02:50:16;101189.38;;;0.07;100.00
55010;BME280;40903;51.638;7.528;2023-04-06T02:52:42;101185.69;;;0.08;100.00
55010;BME280;40903;51.638;7.528;2023-04-06T02:55:07;101187.72;;;0.06;100.00
55010;BME280;40903;51.638;7.528;2023-04-06T02:57:33;101186.50;;;0.02;99.99
55010;BME280;40903;51.638;7.528;2023-04-06T02:59:58;101180.53;;;0.00;99.86
55010;BME280;40903;51.638;7.528;2023-04-06T03:02:23;101186.09;;;-0.01;99.42
55010;BME280;40903;51.638;7.528;2023-04-06T03:04:48;101172.94;;;-0.03;99.24
55010;BME280;40903;51.638;7.528;2023-04-06T03:07:13;101182.00;;;-0.03;98.94
55010;BME280;40903;51.638;7.528;2023-04-06T03:09:39;101176.22;;;-0.07;98.80
55010;BME280;40903;51.638;7.528;2023-04-06T03:12:04;101171.91;;;-0.08;98.75
55010;BME280;40903;51.638;7.528;2023-04-06T03:14:30;101178.50;;;-0.10;98.51
55010;BME280;40903;51.638;7.528;2023-04-06T03:16:55;101179.53;;;-0.11;98.47
55010;BME280;40903;51.638;7.528;2023-04-06T03:19:20;101180.56;;;-0.12;98.68
55010;BME280;40903;51.638;7.528;2023-04-06T03:21:46;101172.13;;;-0.16;98.81
55010;BME280;40903;51.638;7.528;2023-04-06T03:24:12;101171.31;;;-0.16;98.76
55010;BME280;40903;51.638;7.528;2023-04-06T03:26:38;101170.09;;;-0.20;98.89
55010;BME280;40903;51.638;7.528;2023-04-06T03:29:03;101172.97;;;-0.22;99.13
55010;BME280;40903;51.638;7.528;2023-04-06T03:31:29;101174.84;;;-0.22;99.19
55010;BME280;40903;51.638;7.528;2023-04-06T03:33:54;101170.50;;;-0.23;99.02
55010;BME280;40903;51.638;7.528;2023-04-06T03:36:20;101170.09;;;-0.27;99.10
55010;BME280;40903;51.638;7.528;2023-04-06T03:38:45;101178.34;;;-0.28;99.04
55010;BME280;40903;51.638;7.528;2023-04-06T03:41:10;101162.69;;;-0.31;98.96
55010;BME280;40903;51.638;7.528;2023-04-06T03:43:35;101177.13;;;-0.32;98.89
55010;BME280;40903;51.638;7.528;2023-04-06T03:46:01;101172.19;;;-0.35;98.98
55010;BME280;40903;51.638;7.528;2023-04-06T03:48:26;101164.53;;;-0.38;98.98
55010;BME280;40903;51.638;7.528;2023-04-06T03:50:51;101168.25;;;-0.39;99.14
55010;BME280;40903;51.638;7.528;2023-04-06T03:53:16;101170.31;;;-0.41;99.29
55010;BME280;40903;51.638;7.528;2023-04-06T03:55:42;101169.72;;;-0.43;99.45
55010;BME280;40903;51.638;7.528;2023-04-06T03:58:07;101175.28;;;-0.45;99.41
55010;BME280;40903;51.638;7.528;2023-04-06T04:00:32;101165.81;;;-0.47;99.53
55010;BME280;40903;51.638;7.528;2023-04-06T04:02:58;101173.44;;;-0.51;99.59
55010;BME280;40903;51.638;7.528;2023-04-06T04:05:23;101174.88;;;-0.55;99.76
55010;BME280;40903;51.638;7.528;2023-04-06T04:07:50;101177.56;;;-0.55;99.86
55010;BME280;40903;51.638;7.528;2023-04-06T04:10:15;101173.44;;;-0.57;99.77
55010;BME280;40903;51.638;7.528;2023-04-06T04:12:41;101176.09;;;-0.57;100.00
55010;BME280;40903;51.638;7.528;2023-04-06T04:15:06;101169.94;;;-0.58;100.00
55010;BME280;40903;51.638;7.528;2023-04-06T04:17:31;101177.13;;;-0.58;100.00
55010;BME280;40903;51.638;7.528;2023-04-06T04:19:57;101176.53;;;-0.60;100.00
55010;BME280;40903;51.638;7.528;2023-04-06T04:22:22;101178.59;;;-0.62;100.00
55010;BME280;40903;51.638;7.528;2023-04-06T04:24:47;101175.31;;;-0.64;100.00
55010;BME280;40903;51.638;7.528;2023-04-06T04:27:12;101177.56;;;-0.68;100.00
55010;BME280;40903;51.638;7.528;2023-04-06T04:29:38;101179.41;;;-0.68;100.00
55010;BME280;40903;51.638;7.528;2023-04-06T04:32:03;101180.03;;;-0.73;100.00
55010;BME280;40903;51.638;7.528;2023-04-06T04:34:28;101172.19;;;-0.74;100.00
55010;BME280;40903;51.638;7.528;2023-04-06T04:36:54;101176.75;;;-0.75;100.00
55010;BME280;40903;51.638;7.528;2023-04-06T04:39:19;101173.66;;;-0.78;100.00
55010;BME280;40903;51.638;7.528;2023-04-06T04:41:44;101167.69;;;-0.80;100.00
55010;BME280;40903;51.638;7.528;2023-04-06T04:44:10;101174.06;;;-0.81;100.00
55010;BME280;40903;51.638;7.528;2023-04-06T04:46:35;101170.75;;;-0.83;100.00
55010;BME280;40903;51.638;7.528;2023-04-06T04:49:00;101165.63;;;-0.85;100.00
55010;BME280;40903;51.638;7.528;2023-04-06T04:51:26;101176.50;;;-0.86;100.00
55010;BME280;40903;51.638;7.528;2023-04-06T04:53:51;101171.38;;;-0.88;100.00
55010;BME280;40903;51.638;7.528;2023-04-06T04:56:16;101167.06;;;-0.89;100.00
55010;BME280;40903;51.638;7.528;2023-04-06T04:58:41;101167.25;;;-0.90;100.00
55010;BME280;40903;51.638;7.528;2023-04-06T05:01:07;101167.25;;;-0.90;100.00
55010;BME280;40903;51.638;7.528;2023-04-06T05:03:32;101168.47;;;-0.93;100.00
55010;BME280;40903;51.638;7.528;2023-04-06T05:05:58;101168.28;;;-0.91;100.00
55010;BME280;40903;51.638;7.528;2023-04-06T05:08:23;101166.41;;;-0.91;100.00
55010;BME280;40903;51.638;7.528;2023-04-06T05:10:48;101163.97;;;-0.92;100.00
55010;BME280;40903;51.638;7.528;2023-04-06T05:13:14;101169.09;;;-0.91;100.00
55010;BME280;40903;51.638;7.528;2023-04-06T05:15:39;101167.44;;;-0.92;100.00
55010;BME280;40903;51.638;7.528;2023-04-06T05:18:06;101167.88;;;-0.88;100.00
55010;BME280;40903;51.638;7.528;2023-04-06T05:20:31;101169.50;;;-0.87;100.00
55010;BME280;40903;51.638;7.528;2023-04-06T05:22:56;101165.00;;;-0.87;100.00
55010;BME280;40903;51.638;7.528;2023-04-06T05:25:22;101165.38;;;-0.83;100.00
55010;BME280;40903;51.638;7.528;2023-04-06T05:27:47;101159.44;;;-0.79;100.00
55010;BME280;40903;51.638;7.528;2023-04-06T05:30:13;101165.63;;;-0.78;100.00
55010;BME280;40903;51.638;7.528;2023-04-06T05:32:38;101160.69;;;-0.75;100.00
55010;BME280;40903;51.638;7.528;2023-04-06T05:35:04;101167.25;;;-0.71;100.00
55010;BME280;40903;51.638;7.528;2023-04-06T05:37:29;101168.50;;;-0.67;100.00
55010;BME280;40903;51.638;7.528;2023-04-06T05:39:55;101163.56;;;-0.63;100.00
55010;BME280;40903;51.638;7.528;2023-04-06T05:42:21;101166.44;;;-0.58;100.00
55010;BME280;40903;51.638;7.528;2023-04-06T05:44:47;101166.22;;;-0.50;100.00
55010;BME280;40903;51.638;7.528;2023-04-06T05:47:12;101161.06;;;-0.45;100.00
55010;BME280;40903;51.638;7.528;2023-04-06T05:49:37;101163.13;;;-0.41;100.00
55010;BME280;40903;51.638;7.528;2023-04-06T05:52:02;101164.75;;;-0.33;100.00
55010;BME280;40903;51.638;7.528;2023-04-06T05:54:29;101165.78;;;-0.28;100.00
55010;BME280;40903;51.638;7.528;2023-04-06T05:56:54;101166.59;;;-0.21;100.00
55010;BME280;40903;51.638;7.528;2023-04-06T05:59:19;101162.25;;;-0.15;100.00
55010;BME280;40903;51.638;7.528;2023-04-06T06:01:45;101163.03;;;-0.08;100.00
55010;BME280;40903;51.638;7.528;2023-04-06T06:04:10;101173.53;;;-0.01;100.00
55010;BME280;40903;51.638;7.528;2023-04-06T06:06:36;101165.88;;;0.09;100.00
55010;BME280;40903;51.638;7.528;2023-04-06T06:09:01;101161.91;;;0.18;100.00
55010;BME280;40903;51.638;7.528;2023-04-06T06:11:28;101163.94;;;0.29;100.00
55010;BME280;40903;51.638;7.528;2023-04-06T06:13:54;101157.91;;;0.40;100.00
55010;BME280;40903;51.638;7.528;2023-04-06T06:16:19;101169.41;;;0.54;100.00
55010;BME280;40903;51.638;7.528;2023-04-06T06:18:44;101171.19;;;0.66;100.00
55010;BME280;40903;51.638;7.528;2023-04-06T06:21:10;101166.97;;;0.83;100.00
55010;BME280;40903;51.638;7.528;2023-04-06T06:23:37;101160.44;;;0.97;100.00
55010;BME280;40903;51.638;7.528;2023-04-06T06:26:02;101164.28;;;1.14;100.00
55010;BME280;40903;51.638;7.528;2023-04-06T06:28:28;101156.28;;;1.32;100.00
55010;BME280;40903;51.638;7.528;2023-04-06T06:30:53;101149.09;;;1.51;100.00
55010;BME280;40903;51.638;7.528;2023-04-06T06:33:18;101155.53;;;1.68;100.00
55010;BME280;40903;51.638;7.528;2023-04-06T06:35:43;101156.34;;;1.86;99.27
55010;BME280;40903;51.638;7.528;2023-04-06T06:38:09;101170.44;;;2.06;97.17
55010;BME280;40903;51.638;7.528;2023-04-06T06:40:34;101160.25;;;2.26;95.00
55010;BME280;40903;51.638;7.528;2023-04-06T06:42:59;101166.00;;;2.47;91.84
55010;BME280;40903;51.638;7.528;2023-04-06T06:45:25;101157.41;;;2.68;88.93
55010;BME280;40903;51.638;7.528;2023-04-06T06:47:50;101157.13;;;2.88;88.85
55010;BME280;40903;51.638;7.528;2023-04-06T06:50:16;101169.25;;;3.08;86.45
55010;BME280;40903;51.638;7.528;2023-04-06T06:52:41;101160.88;;;3.28;85.55
55010;BME280;40903;51.638;7.528;2023-04-06T06:55:07;101153.28;;;3.48;82.40
55010;BME280;40903;51.638;7.528;2023-04-06T06:57:33;101157.28;;;3.68;80.57
55010;BME280;40903;51.638;7.528;2023-04-06T06:59:58;101152.56;;;3.86;79.99
55010;BME280;40903;51.638;7.528;2023-04-06T07:02:24;101155.72;;;4.06;78.90
55010;BME280;40903;51.638;7.528;2023-04-06T07:04:50;101157.19;;;4.25;78.77
55010;BME280;40903;51.638;7.528;2023-04-06T07:07:15;101154.66;;;4.47;78.50
55010;BME280;40903;51.638;7.528;2023-04-06T07:09:43;101155.31;;;4.65;75.42
55010;BME280;40903;51.638;7.528;2023-04-06T07:12:09;101161.09;;;4.85;74.95
55010;BME280;40903;51.638;7.528;2023-04-06T07:14:34;101155.25;;;5.05;73.44
55010;BME280;40903;51.638;7.528;2023-04-06T07:16:59;101154.22;;;5.22;72.50
55010;BME280;40903;51.638;7.528;2023-04-06T07:19:24;101150.41;;;5.40;71.96
55010;BME280;40903;51.638;7.528;2023-04-06T07:21:50;101148.78;;;5.55;69.44
55010;BME280;40903;51.638;7.528;2023-04-06T07:24:15;101150.66;;;5.71;69.27
55010;BME280;40903;51.638;7.528;2023-04-06T07:26:40;101148.78;;;5.88;67.74
55010;BME280;40903;51.638;7.528;2023-04-06T07:29:05;101146.84;;;6.05;67.96
55010;BME280;40903;51.638;7.528;2023-04-06T07:31:31;101144.16;;;6.26;67.32
55010;BME280;40903;51.638;7.528;2023-04-06T07:33:56;101140.88;;;6.46;67.05
55010;BME280;40903;51.638;7.528;2023-04-06T07:36:21;101138.16;;;6.67;66.02
55010;BME280;40903;51.638;7.528;2023-04-06T07:38:47;101140.53;;;6.85;64.91
55010;BME280;40903;51.638;7.528;2023-04-06T07:41:12;101136.13;;;7.06;65.24
55010;BME280;40903;51.638;7.528;2023-04-06T07:43:37;101135.78;;;7.29;63.58
55010;BME280;40903;51.638;7.528;2023-04-06T07:46:03;101144.34;;;7.47;60.59
55010;BME280;40903;51.638;7.528;2023-04-06T07:48:28;101145.00;;;7.64;59.35
55010;BME280;40903;51.638;7.528;2023-04-06T07:51:00;101141.63;;;7.83;59.86
55010;BME280;40903;51.638;7.528;2023-04-06T07:53:25;101137.13;;;8.04;59.08
55010;BME280;40903;51.638;7.528;2023-04-06T07:55:50;101135.91;;;8.21;57.81
55010;BME280;40903;51.638;7.528;2023-04-06T07:58:16;101141.97;;;8.43;56.77
55010;BME280;40903;51.638;7.528;2023-04-06T08:00:41;101137.16;;;8.65;56.78
55010;BME280;40903;51.638;7.528;2023-04-06T08:03:06;101148.91;;;8.91;51.04
55010;BME280;40903;51.638;7.528;2023-04-06T08:05:32;101151.41;;;9.17;46.34
55010;BME280;40903;51.638;7.528;2023-04-06T08:07:57;101156.31;;;9.30;46.71
55010;BME280;40903;51.638;7.528;2023-04-06T08:10:22;101147.63;;;9.48;48.51
55010;BME280;40903;51.638;7.528;2023-04-06T08:12:48;101159.56;;;9.67;44.75
55010;BME280;40903;51.638;7.528;2023-04-06T08:15:13;101166.13;;;9.86;43.27
55010;BME280;40903;51.638;7.528;2023-04-06T08:17:38;101167.72;;;9.97;44.91
55010;BME280;40903;51.638;7.528;2023-04-06T08:20:04;101168.00;;;10.05;42.80
55010;BME280;40903;51.638;7.528;2023-04-06T08:22:29;101164.16;;;10.16;43.18
55010;BME280;40903;51.638;7.528;2023-04-06T08:24:54;101168.78;;;10.31;42.34
55010;BME280;40903;51.638;7.528;2023-04-06T08:27:19;101156.97;;;10.45;44.64
55010;BME280;40903;51.638;7.528;2023-04-06T08:29:45;101152.78;;;10.68;45.30
55010;BME280;40903;51.638;7.528;2023-04-06T08:32:10;101164.16;;;10.85;42.48
55010;BME280;40903;51.638;7.528;2023-04-06T08:34:35;101158.09;;;10.98;41.00
55010;BME280;40903;51.638;7.528;2023-04-06T08:37:01;101163.97;;;11.15;40.21
55010;BME280;40903;51.638;7.528;2023-04-06T08:39:30;101153.28;;;11.23;43.96
55010;BME280;40903;51.638;7.528;2023-04-06T08:41:55;101154.78;;;11.39;42.70
55010;BME280;40903;51.638;7.528;2023-04-06T08:44:25;101158.72;;;11.62;40.26
55010;BME280;40903;51.638;7.528;2023-04-06T08:46:50;101158.91;;;11.75;38.73
55010;BME280;40903;51.638;7.528;2023-04-06T08:49:16;101161.25;;;11.86;38.52
55010;BME280;40903;51.638;7.528;2023-04-06T08:51:41;101158.13;;;11.98;40.41
55010;BME280;40903;51.638;7.528;2023-04-06T08:54:07;101151.63;;;12.17;38.65
55010;BME280;40903;51.638;7.528;2023-04-06T08:56:32;101146.16;;;12.17;39.54
55010;BME280;40903;51.638;7.528;2023-04-06T08:58:58;101158.03;;;12.31;38.53
55010;BME280;40903;51.638;7.528;2023-04-06T09:01:27;101145.75;;;12.52;38.45
55010;BME280;40903;51.638;7.528;2023-04-06T09:03:59;101139.16;;;12.77;40.41
55010;BME280;40903;51.638;7.528;2023-04-06T09:06:26;101148.13;;;13.01;38.51
55010;BME280;40903;51.638;7.528;2023-04-06T09:08:52;101153.84;;;13.23;36.37
55010;BME280;40903;51.638;7.528;2023-04-06T09:11:17;101155.91;;;13.31;36.67
55010;BME280;40903;51.638;7.528;2023-04-06T09:16:11;101143.34;;;13.43;37.18
55010;BME280;40903;51.638;7.528;2023-04-06T09:18:36;101145.06;;;13.58;36.42
55010;BME280;40903;51.638;7.528;2023-04-06T09:21:02;101149.03;;;13.65;34.34
55010;BME280;40903;51.638;7.528;2023-04-06T09:23:28;101145.28;;;13.61;34.08
55010;BME280;40903;51.638;7.528;2023-04-06T09:26:06;101136.84;;;13.71;35.95
55010;BME280;40903;51.638;7.528;2023-04-06T09:31:10;101143.31;;;13.93;33.70
55010;BME280;40903;51.638;7.528;2023-04-06T09:33:43;101127.75;;;14.21;36.96
55010;BME280;40903;51.638;7.528;2023-04-06T09:36:08;101139.03;;;14.46;33.66
55010;BME280;40903;51.638;7.528;2023-04-06T09:38:36;101129.66;;;14.74;34.19
55010;BME280;40903;51.638;7.528;2023-04-06T09:41:01;101129.25;;;15.03;33.52
55010;BME280;40903;51.638;7.528;2023-04-06T09:43:27;101122.78;;;15.21;34.07
55010;BME280;40903;51.638;7.528;2023-04-06T09:45:52;101132.06;;;15.25;32.21
55010;BME280;40903;51.638;7.528;2023-04-06T09:48:18;101133.06;;;15.29;31.51
55010;BME280;40903;51.638;7.528;2023-04-06T09:50:44;101142.03;;;15.21;30.80
55010;BME280;40903;51.638;7.528;2023-04-06T09:53:10;101128.47;;;15.02;33.75
55010;BME280;40903;51.638;7.528;2023-04-06T09:55:39;101132.13;;;14.98;31.92
55010;BME280;40903;51.638;7.528;2023-04-06T09:58:06;101140.22;;;14.81;31.81
55010;BME280;40903;51.638;7.528;2023-04-06T10:00:33;101126.84;;;14.88;32.19
55010;BME280;40903;51.638;7.528;2023-04-06T10:03:04;101125.19;;;15.00;31.03
55010;BME280;40903;51.638;7.528;2023-04-06T10:08:03;101123.63;;;14.86;30.04
55010;BME280;40903;51.638;7.528;2023-04-06T10:10:30;101117.72;;;14.79;31.74
55010;BME280;40903;51.638;7.528;2023-04-06T10:12:56;101121.00;;;14.81;30.85
55010;BME280;40903;51.638;7.528;2023-04-06T10:15:21;101122.50;;;14.87;31.35
55010;BME280;40903;51.638;7.528;2023-04-06T10:17:46;101127.81;;;14.70;31.28
55010;BME280;40903;51.638;7.528;2023-04-06T10:20:15;101125.19;;;14.65;30.28
55010;BME280;40903;51.638;7.528;2023-04-06T10:25:08;101117.63;;;14.70;30.19
55010;BME280;40903;51.638;7.528;2023-04-06T10:27:33;101118.31;;;14.89;30.32
55010;BME280;40903;51.638;7.528;2023-04-06T10:30:02;101106.72;;;14.79;31.22
55010;BME280;40903;51.638;7.528;2023-04-06T10:32:32;101113.00;;;14.93;31.38
55010;BME280;40903;51.638;7.528;2023-04-06T10:35:04;101108.47;;;14.88;32.03
55010;BME280;40903;51.638;7.528;2023-04-06T10:37:45;101111.59;;;14.95;30.95
55010;BME280;40903;51.638;7.528;2023-04-06T10:42:45;101111.38;;;15.05;31.01
55010;BME280;40903;51.638;7.528;2023-04-06T10:45:23;101113.91;;;15.02;30.30
55010;BME280;40903;51.638;7.528;2023-04-06T10:47:49;101107.72;;;14.96;30.37
55010;BME280;40903;51.638;7.528;2023-04-06T10:50:15;101103.63;;;14.94;30.80
55010;BME280;40903;51.638;7.528;2023-04-06T10:52:44;101098.00;;;15.12;31.99
55010;BME280;40903;51.638;7.528;2023-04-06T10:55:09;101106.81;;;15.23;31.30
55010;BME280;40903;51.638;7.528;2023-04-06T10:57:35;101094.09;;;15.49;32.83
55010;BME280;40903;51.638;7.528;2023-04-06T11:00:03;101098.81;;;15.78;31.36
55010;BME280;40903;51.638;7.528;2023-04-06T11:02:28;101107.78;;;15.92;29.49
55010;BME280;40903;51.638;7.528;2023-04-06T11:04:55;101099.63;;;15.79;29.53
55010;BME280;40903;51.638;7.528;2023-04-06T11:07:24;101103.81;;;15.77;28.42
55010;BME280;40903;51.638;7.528;2023-04-06T11:09:50;101096.75;;;15.84;30.28
55010;BME280;40903;51.638;7.528;2023-04-06T11:12:27;101103.56;;;15.86;29.55
55010;BME280;40903;51.638;7.528;2023-04-06T11:14:57;101098.38;;;15.85;29.19
55010;BME280;40903;51.638;7.528;2023-04-06T11:17:33;101099.09;;;15.99;30.31
55010;BME280;40903;51.638;7.528;2023-04-06T11:19:58;101093.91;;;16.06;28.66
55010;BME280;40903;51.638;7.528;2023-04-06T11:22:24;101091.50;;;16.04;29.18
55010;BME280;40903;51.638;7.528;2023-04-06T11:24:49;101087.97;;;16.12;29.14
55010;BME280;40903;51.638;7.528;2023-04-06T11:27:14;101094.97;;;16.18;28.46
55010;BME280;40903;51.638;7.528;2023-04-06T11:29:43;101093.69;;;16.24;27.83
55010;BME280;40903;51.638;7.528;2023-04-06T11:32:11;101100.91;;;16.12;27.58
55010;BME280;40903;51.638;7.528;2023-04-06T11:34:36;101101.00;;;15.98;26.69
55010;BME280;40903;51.638;7.528;2023-04-06T11:37:03;101102.50;;;16.04;26.74
55010;BME280;40903;51.638;7.528;2023-04-06T11:39:32;101095.19;;;16.00;27.34
55010;BME280;40903;51.638;7.528;2023-04-06T11:42:02;101081.19;;;16.18;29.21
55010;BME280;40903;51.638;7.528;2023-04-06T11:46:59;101082.28;;;16.48;27.96
55010;BME280;40903;51.638;7.528;2023-04-06T11:49:28;101083.13;;;16.57;27.17
55010;BME280;40903;51.638;7.528;2023-04-06T11:51:57;101076.66;;;16.61;27.08
55010;BME280;40903;51.638;7.528;2023-04-06T11:54:33;101079.72;;;16.68;28.35
55010;BME280;40903;51.638;7.528;2023-04-06T11:56:58;101073.09;;;16.69;29.88
55010;BME280;40903;51.638;7.528;2023-04-06T11:59:23;101068.41;;;16.61;28.40
55010;BME280;40903;51.638;7.528;2023-04-06T12:01:49;101069.53;;;16.13;28.03
55010;BME280;40903;51.638;7.528;2023-04-06T12:04:14;101063.75;;;16.23;29.60
55010;BME280;40903;51.638;7.528;2023-04-06T12:06:40;101061.78;;;16.23;29.01
55010;BME280;40903;51.638;7.528;2023-04-06T12:09:05;101065.13;;;16.03;28.94
55010;BME280;40903;51.638;7.528;2023-04-06T12:11:30;101053.75;;;15.96;29.57
55010;BME280;40903;51.638;7.528;2023-04-06T12:13:55;101057.50;;;16.00;30.51
55010;BME280;40903;51.638;7.528;2023-04-06T12:16:21;101054.16;;;16.12;30.02
55010;BME280;40903;51.638;7.528;2023-04-06T12:18:46;101062.06;;;16.13;29.51
55010;BME280;40903;51.638;7.528;2023-04-06T12:21:11;101051.75;;;16.27;29.97
55010;BME280;40903;51.638;7.528;2023-04-06T12:23:37;101053.84;;;16.22;30.18
55010;BME280;40903;51.638;7.528;2023-04-06T12:26:02;101062.81;;;15.97;28.24
55010;BME280;40903;51.638;7.528;2023-04-06T12:28:28;101053.63;;;16.01;29.33
55010;BME280;40903;51.638;7.528;2023-04-06T12:30:55;101047.47;;;16.04;29.23
55010;BME280;40903;51.638;7.528;2023-04-06T12:33:20;101041.16;;;16.04;29.97
55010;BME280;40903;51.638;7.528;2023-04-06T12:35:46;101044.75;;;16.13;30.80
55010;BME280;40903;51.638;7.528;2023-04-06T12:38:11;101043.31;;;16.15;31.52
55010;BME280;40903;51.638;7.528;2023-04-06T12:40:37;101040.28;;;16.34;31.34
55010;BME280;40903;51.638;7.528;2023-04-06T12:43:03;101047.97;;;16.45;28.31
55010;BME280;40903;51.638;7.528;2023-04-06T12:45:28;101038.41;;;16.51;30.11
55010;BME280;40903;51.638;7.528;2023-04-06T12:47:55;101046.03;;;16.54;28.74
55010;BME280;40903;51.638;7.528;2023-04-06T12:50:20;101036.31;;;16.48;29.64
55010;BME280;40903;51.638;7.528;2023-04-06T12:52:45;101044.56;;;16.48;28.71
55010;BME280;40903;51.638;7.528;2023-04-06T12:55:12;101037.03;;;16.32;29.94
55010;BME280;40903;51.638;7.528;2023-04-06T12:57:37;101038.31;;;16.17;30.37
55010;BME280;40903;51.638;7.528;2023-04-06T13:00:02;101019.03;;;16.17;32.52